Time;durP1;ratioP1;P1;durP2;ratioP2;P2;SDS_P1;SDS_P2;PMS_P1;PMS_P2;Temp;Humidity;BMP_temperature;BMP_pressure;BME280_temperature;BME280_humidity;BME280_pressure;Samples;Min_cycle;Max_cycle;Signal;HPM_P1;HPM_P2
2022/06/28 00:00:18;;;;;;;2.17;1.97;;;;;;;16.89;100.00;100797.41;5002291;28;20406;-79
2022/06/28 00:02:44;;;;;;;2.37;2.17;;;;;;;16.87;100.00;100807.06;5005143;28;20194;-79
2022/06/28 00:05:10;;;;;;;3.33;2.13;;;;;;;16.85;100.00;100814.09;5020314;28;20245;-79
2022/06/28 00:07:37;;;;;;;3.07;2.00;;;;;;;16.82;100.00;100801.94;5007255;28;20832;-78
2022/06/28 00:10:03;;;;;;;1.93;1.80;;;;;;;16.77;100.00;100807.31;5006163;28;20217;-78
2022/06/28 00:12:29;;;;;;;1.97;1.87;;;;;;;16.76;100.00;100818.66;5006360;28;20192;-78
2022/06/28 00:17:39;;;;;;;1.90;1.80;;;;;;;16.69;100.00;100813.63;5006107;28;20206;-77
2022/06/28 00:20:05;;;;;;;2.20;2.00;;;;;;;16.66;100.00;100811.09;5004841;28;20208;-78
2022/06/28 00:22:30;;;;;;;2.10;1.87;;;;;;;16.62;100.00;100802.47;5003915;28;20195;-78
2022/06/28 00:24:56;;;;;;;2.00;1.90;;;;;;;16.58;100.00;100804.31;5007256;28;20208;-78
2022/06/28 00:27:21;;;;;;;2.90;1.90;;;;;;;16.56;100.00;100803.50;5006570;28;20184;-78
2022/06/28 00:29:47;;;;;;;1.83;1.73;;;;;;;16.53;100.00;100798.34;5024474;28;20800;-79
2022/06/28 00:32:12;;;;;;;2.20;2.00;;;;;;;16.49;100.00;100804.53;5008146;28;20207;-78
2022/06/28 00:34:38;;;;;;;2.13;1.87;;;;;;;16.46;100.00;100802.88;5009620;28;20742;-78
2022/06/28 00:37:04;;;;;;;2.27;2.10;;;;;;;16.45;100.00;100798.53;5007373;28;20343;-78
2022/06/28 00:39:30;;;;;;;2.10;2.00;;;;;;;16.43;100.00;100789.03;4998534;28;20181;-77
2022/06/28 00:41:55;;;;;;;2.57;1.90;;;;;;;16.39;100.00;100787.41;5006222;28;20581;-78
2022/06/28 00:44:22;;;;;;;1.97;1.80;;;;;;;16.36;100.00;100777.91;5005781;28;20222;-78
2022/06/28 00:46:48;;;;;;;1.80;1.70;;;;;;;16.33;100.00;100777.97;5005901;28;20203;-78
2022/06/28 00:49:13;;;;;;;1.70;1.60;;;;;;;16.31;100.00;100787.59;5005175;28;20225;-77
2022/06/28 00:51:39;;;;;;;1.53;1.43;;;;;;;16.30;100.00;100791.09;5005648;28;20557;-75
2022/06/28 00:54:05;;;;;;;1.87;1.73;;;;;;;16.28;100.00;100783.31;5003044;28;20316;-79
2022/06/28 00:56:31;;;;;;;1.83;1.73;;;;;;;16.26;100.00;100786.88;5005485;28;20660;-79
2022/06/28 00:58:57;;;;;;;2.00;1.90;;;;;;;16.23;100.00;100787.78;5016931;28;20192;-77
2022/06/28 01:01:26;;;;;;;2.03;1.90;;;;;;;16.20;100.00;100790.44;5008224;28;20220;-80
2022/06/28 01:03:52;;;;;;;1.57;1.47;;;;;;;16.15;100.00;100797.56;5020264;28;20268;-77
2022/06/28 01:06:18;;;;;;;2.10;1.90;;;;;;;16.11;100.00;100801.97;5020245;28;20246;-78
2022/06/28 01:08:47;;;;;;;3.07;2.20;;;;;;;16.08;100.00;100793.38;5005690;28;20258;-80
2022/06/28 01:11:20;;;;;;;2.23;1.93;;;;;;;16.04;100.00;100794.31;5002410;28;20206;-79
2022/06/28 01:13:53;;;;;;;2.10;1.90;;;;;;;16.00;100.00;100793.53;5002117;28;20291;-79
2022/06/28 01:16:20;;;;;;;2.60;1.80;;;;;;;15.97;100.00;100791.00;4997674;28;20277;-76
2022/06/28 01:18:45;;;;;;;1.80;1.70;;;;;;;15.94;100.00;100791.94;5004627;28;20641;-79
2022/06/28 01:21:16;;;;;;;1.80;1.70;;;;;;;15.92;100.00;100793.72;5008182;28;20192;-77
2022/06/28 01:23:43;;;;;;;4.93;2.00;;;;;;;15.89;100.00;100792.94;5020441;28;20215;-78
2022/06/28 01:26:10;;;;;;;2.33;1.97;;;;;;;15.85;100.00;100795.63;5002971;28;20199;-79
2022/06/28 01:28:37;;;;;;;2.90;1.80;;;;;;;15.84;100.00;100799.09;4995748;28;20283;-78
2022/06/28 01:31:04;;;;;;;2.03;1.93;;;;;;;15.81;100.00;100804.38;5003172;28;20192;-76
2022/06/28 01:33:29;;;;;;;1.80;1.70;;;;;;;15.77;100.00;100799.25;5007621;28;20208;-77
2022/06/28 01:35:55;;;;;;;3.37;1.87;;;;;;;15.74;100.00;100791.50;5022828;28;20755;-77
2022/06/28 01:38:22;;;;;;;1.97;1.80;;;;;;;15.70;100.00;100790.72;5007764;28;20209;-77
2022/06/28 01:40:49;;;;;;;2.00;1.90;;;;;;;15.67;100.00;100788.16;5016261;28;20191;-78
2022/06/28 01:43:15;;;;;;;2.33;1.90;;;;;;;15.64;100.00;100799.53;5005068;28;20199;-76
2022/06/28 01:45:42;;;;;;;2.33;2.13;;;;;;;15.62;100.00;100800.47;5023007;28;20193;-77
2022/06/28 01:48:08;;;;;;;2.20;2.00;;;;;;;15.55;100.00;100802.34;4999220;28;20726;-79
2022/06/28 01:50:33;;;;;;;2.30;2.10;;;;;;;15.48;100.00;100796.41;4999780;28;20759;-78
2022/06/28 01:52:59;;;;;;;1.87;1.77;;;;;;;15.43;100.00;100795.66;5017795;28;20203;-77
2022/06/28 01:55:24;;;;;;;2.10;1.90;;;;;;;15.38;100.00;100797.47;5010860;28;20242;-77
2022/06/28 01:57:49;;;;;;;2.17;1.83;;;;;;;15.32;100.00;100795.84;5009231;28;20180;-76
2022/06/28 02:00:15;;;;;;;1.90;1.80;;;;;;;15.30;100.00;100796.78;5007600;28;20617;-79
2022/06/28 02:02:41;;;;;;;1.80;1.70;;;;;;;15.29;100.00;100802.91;5042039;28;20217;-78
2022/06/28 02:05:07;;;;;;;2.23;1.90;;;;;;;15.27;100.00;100802.94;5021730;28;20643;-77
2022/06/28 02:07:33;;;;;;;2.13;1.90;;;;;;;15.26;100.00;100802.94;5008814;28;20191;-77
2022/06/28 02:09:58;;;;;;;2.40;1.90;;;;;;;15.20;100.00;100810.00;5007397;28;20665;-79
2022/06/28 02:12:26;;;;;;;1.87;1.77;;;;;;;15.12;100.00;100806.69;5006540;28;20188;-79
2022/06/28 02:14:51;;;;;;;2.10;1.90;;;;;;;15.09;100.00;100806.75;5004919;28;20707;-79
2022/06/28 02:17:17;;;;;;;2.90;2.03;;;;;;;15.05;100.00;100802.50;5011296;28;20251;-79
2022/06/28 02:19:43;;;;;;;2.70;1.90;;;;;;;15.00;100.00;100801.72;5011760;28;20190;-79
2022/06/28 02:22:08;;;;;;;2.30;2.10;;;;;;;14.97;100.00;100805.25;5007544;28;20219;-79
2022/06/28 02:24:34;;;;;;;2.10;2.00;;;;;;;14.94;100.00;100795.72;5030927;28;20260;-79
2022/06/28 02:26:59;;;;;;;1.93;1.73;;;;;;;14.91;100.00;100801.00;5024371;28;20218;-79
2022/06/28 02:29:24;;;;;;;2.07;1.87;;;;;;;14.88;100.00;100806.28;5023416;28;20294;-79
2022/06/28 02:31:49;;;;;;;2.40;1.90;;;;;;;14.87;100.00;100809.78;5011071;28;20212;-79
2022/06/28 02:42:27;;;;;;;2.20;2.07;;;;;;;14.82;100.00;100813.34;5002942;28;20214;-79
2022/06/28 02:44:52;;;;;;;2.83;1.80;;;;;;;14.81;100.00;100820.28;5010009;28;20211;-79
2022/06/28 02:47:17;;;;;;;1.87;1.73;;;;;;;14.78;100.00;100829.03;5007451;28;20190;-79
2022/06/28 02:49:43;;;;;;;2.20;2.10;;;;;;;14.75;100.00;100828.22;5003816;28;20229;-78
2022/06/28 02:52:08;;;;;;;2.40;2.07;;;;;;;14.72;100.00;100820.47;5002787;28;20320;-78
2022/06/28 02:54:34;;;;;;;2.30;2.10;;;;;;;14.69;100.00;100823.97;5008799;28;20274;-78
2022/06/28 02:56:59;;;;;;;2.27;2.10;;;;;;;14.65;100.00;100830.13;5006940;28;20256;-78
2022/06/28 02:59:24;;;;;;;2.47;2.13;;;;;;;14.62;100.00;100830.16;5004847;28;20830;-78
2022/06/28 03:01:50;;;;;;;2.53;2.33;;;;;;;14.61;100.00;100837.09;5018968;28;20739;-79
2022/06/28 03:04:15;;;;;;;2.30;2.10;;;;;;;14.60;100.00;100834.53;5019602;28;20213;-79
2022/06/28 03:06:40;;;;;;;2.97;2.30;;;;;;;14.59;100.00;100828.47;5004750;28;20194;-79
2022/06/28 03:09:06;;;;;;;2.37;2.17;;;;;;;14.57;100.00;100832.84;5002389;28;20981;-77
2022/06/28 03:11:31;;;;;;;2.20;2.00;;;;;;;14.54;100.00;100835.50;5017612;28;20723;-77
2022/06/28 03:13:57;;;;;;;2.13;2.00;;;;;;;14.50;100.00;100836.41;5005497;28;20299;-77
2022/06/28 03:16:22;;;;;;;2.43;2.23;;;;;;;14.47;100.00;100844.28;5006714;28;20227;-78
2022/06/28 03:18:48;;;;;;;2.37;2.17;;;;;;;14.46;100.00;100842.56;5006563;28;20183;-77
2022/06/28 03:21:13;;;;;;;3.37;1.97;;;;;;;14.43;100.00;100845.22;5007161;28;20219;-76
2022/06/28 03:23:38;;;;;;;2.93;1.97;;;;;;;14.42;100.00;100848.72;5020766;28;20245;-76
2022/06/28 03:26:04;;;;;;;3.10;1.97;;;;;;;14.40;100.00;100848.72;5004296;28;20281;-76
2022/06/28 03:28:29;;;;;;;1.90;1.80;;;;;;;14.40;100.00;100846.13;5023770;28;20572;-76
2022/06/28 03:30:54;;;;;;;2.43;2.23;;;;;;;14.43;100.00;100851.28;5015003;28;20187;-78
2022/06/28 03:33:20;;;;;;;2.97;2.00;;;;;;;14.44;100.00;100854.78;5006642;28;20654;-77
2022/06/28 03:35:46;;;;;;;3.40;2.20;;;;;;;14.43;100.00;100858.25;5009518;28;20207;-76
2022/06/28 03:38:11;;;;;;;2.30;2.10;;;;;;;14.41;100.00;100865.22;5005376;28;20272;-78
2022/06/28 03:40:36;;;;;;;4.30;2.53;;;;;;;14.41;100.00;100863.47;5023523;28;20596;-76
2022/06/28 03:43:02;;;;;;;3.77;2.60;;;;;;;14.39;100.00;100872.19;5002937;28;20560;-77
2022/06/28 03:45:27;;;;;;;4.60;2.67;;;;;;;14.37;100.00;100866.16;5018814;28;20211;-77
2022/06/28 03:47:52;;;;;;;3.10;2.20;;;;;;;14.38;100.00;100867.88;5003726;28;20210;-77
2022/06/28 03:50:18;;;;;;;4.53;2.40;;;;;;;14.41;100.00;100873.03;5014941;28;20187;-76
2022/06/28 03:52:44;;;;;;;2.70;2.50;;;;;;;14.48;100.00;100874.66;5020741;28;20204;-77
2022/06/28 03:55:11;;;;;;;6.63;2.50;;;;;;;14.57;100.00;100871.91;5021629;28;20218;-76
2022/06/28 03:57:36;;;;;;;3.53;2.33;;;;;;;14.96;100.00;100878.25;5003117;28;20485;-77
2022/06/28 04:00:02;;;;;;;4.40;2.60;;;;;;;15.57;100.00;100871.00;5006616;28;20234;-78
2022/06/28 04:02:28;;;;;;;3.80;2.27;;;;;;;16.26;100.00;100862.59;5018091;28;20213;-77
2022/06/28 04:04:53;;;;;;;3.40;2.00;;;;;;;16.92;100.00;100865.31;5021723;28;20207;-78
2022/06/28 04:07:18;;;;;;;2.73;1.77;;;;;;;17.26;100.00;100863.56;5018156;28;20709;-78
2022/06/28 04:09:44;;;;;;;2.00;1.77;;;;;;;17.20;100.00;100859.38;5002785;28;20330;-78
2022/06/28 04:12:09;;;;;;;2.30;1.80;;;;;;;16.89;100.00;100858.41;5001793;28;20191;-78
2022/06/28 04:14:35;;;;;;;2.00;1.73;;;;;;;16.57;100.00;100862.69;4999962;28;20203;-79
2022/06/28 04:17:00;;;;;;;2.83;1.70;;;;;;;16.35;100.00;100862.38;5004155;28;20183;-79
2022/06/28 04:19:26;;;;;;;3.07;1.60;;;;;;;16.23;100.00;100854.81;5003675;28;20230;-79
2022/06/28 04:21:51;;;;;;;1.97;1.87;;;;;;;16.21;100.00;100865.28;5009550;28;20280;-79
2022/06/28 04:24:16;;;;;;;2.00;1.90;;;;;;;16.86;100.00;100853.25;5021584;28;20775;-79
2022/06/28 04:26:42;;;;;;;1.67;1.57;;;;;;;17.31;100.00;100849.50;5002821;28;20210;-78
2022/06/28 04:29:07;;;;;;;1.70;1.60;;;;;;;17.24;100.00;100857.53;5001025;28;20211;-78
2022/06/28 04:31:33;;;;;;;1.40;1.30;;;;;;;17.14;100.00;100856.94;5010825;28;20211;-79
2022/06/28 04:33:58;;;;;;;1.57;1.47;;;;;;;17.04;100.00;100859.78;5003843;28;20215;-79
2022/06/28 04:36:26;;;;;;;3.27;1.70;;;;;;;16.94;100.00;100857.44;5022507;28;20283;-79
2022/06/28 04:38:52;;;;;;;1.60;1.50;;;;;;;16.85;100.00;100859.38;5023342;28;20183;-79
2022/06/28 04:41:19;;;;;;;2.43;1.70;;;;;;;17.09;100.00;100864.91;5005597;28;20670;-78
2022/06/28 04:43:45;;;;;;;3.13;1.73;;;;;;;18.17;100.00;100863.56;5009461;28;20210;-79
2022/06/28 04:46:10;;;;;;;5.13;2.03;;;;;;;19.85;100.00;100861.25;5009262;28;20187;-78
2022/06/28 04:48:35;;;;;;;3.57;1.77;;;;;;;21.35;100.00;100859.47;5022024;28;20263;-79
2022/06/28 04:51:10;;;;;;;5.17;1.83;;;;;;;22.62;100.00;100857.94;5002191;28;20202;-79
2022/06/28 04:53:40;;;;;;;4.27;1.90;;;;;;;23.64;100.00;100851.78;5002955;28;20592;-77
2022/06/28 04:56:05;;;;;;;3.60;1.73;;;;;;;24.38;97.38;100852.09;5000844;28;20195;-78
2022/06/28 04:58:31;;;;;;;3.67;1.70;;;;;;;25.11;95.52;100857.44;5011715;28;20187;-78
2022/06/28 05:00:56;;;;;;;1.70;1.20;;;;;;;25.77;93.37;100859.63;5014926;28;20867;-79
2022/06/28 05:03:22;;;;;;;2.60;1.40;;;;;;;26.46;91.03;100861.38;5006943;28;20561;-78
2022/06/28 05:05:47;;;;;;;2.00;1.17;;;;;;;27.10;87.88;100855.28;5034696;28;20195;-78
2022/06/28 05:08:13;;;;;;;3.20;1.10;;;;;;;27.58;86.15;100862.59;5035725;28;20341;-78
2022/06/28 05:10:39;;;;;;;2.57;1.53;;;;;;;28.11;83.30;100859.66;5020708;28;20820;-77
2022/06/28 05:13:04;;;;;;;1.53;1.37;;;;;;;28.30;82.33;100863.56;5011311;28;20188;-77
2022/06/28 05:15:30;;;;;;;2.70;1.20;;;;;;;28.49;81.89;100864.84;5004693;28;20204;-78
2022/06/28 05:17:55;;;;;;;1.40;1.30;;;;;;;28.83;80.34;100865.81;5004895;28;20698;-76
2022/06/28 05:20:21;;;;;;;2.07;1.20;;;;;;;28.96;78.43;100863.03;5009046;28;20191;-77
2022/06/28 05:22:46;;;;;;;3.63;1.60;;;;;;;29.12;77.37;100859.19;5021209;28;20245;-77
2022/06/28 05:25:11;;;;;;;2.47;1.30;;;;;;;29.24;77.01;100849.38;5005349;28;20266;-76
2022/06/28 05:27:39;;;;;;;4.80;1.60;;;;;;;28.65;75.74;100849.41;5010070;28;20271;-78
2022/06/28 05:30:06;;;;;;;1.30;1.20;;;;;;;29.10;76.07;100837.13;5010894;28;20199;-79
2022/06/28 05:32:31;;;;;;;2.67;1.37;;;;;;;29.12;74.82;100843.19;5011868;28;20242;-78
2022/06/28 05:34:57;;;;;;;2.00;1.30;;;;;;;29.72;74.44;100841.09;5009316;28;20208;-77
2022/06/28 05:37:22;;;;;;;2.43;1.77;;;;;;;29.59;73.52;100832.38;5015799;28;20199;-79
2022/06/28 05:39:47;;;;;;;3.83;1.87;;;;;;;29.89;73.25;100830.84;5028123;28;20411;-80
2022/06/28 05:42:14;;;;;;;2.23;1.80;;;;;;;30.41;71.37;100823.84;5028072;28;20330;-79
2022/06/28 05:44:40;;;;;;;2.27;1.80;;;;;;;30.58;71.64;100818.94;5009634;28;20277;-79
2022/06/28 05:47:05;;;;;;;6.57;2.00;;;;;;;30.70;71.57;100814.38;5017433;28;20197;-78
2022/06/28 05:49:31;;;;;;;4.47;2.43;;;;;;;30.71;70.84;100816.88;5005249;28;20209;-78
2022/06/28 05:51:56;;;;;;;3.00;1.80;;;;;;;30.76;70.13;100804.97;5000846;28;20238;-78
2022/06/28 05:54:22;;;;;;;3.13;1.77;;;;;;;30.78;69.47;100805.69;5004110;28;20285;-78
2022/06/28 05:56:47;;;;;;;2.70;1.93;;;;;;;30.40;70.11;100805.31;5018631;28;20226;-77
2022/06/28 05:59:12;;;;;;;2.90;1.80;;;;;;;30.27;70.20;100805.47;5007330;28;20273;-78
2022/06/28 06:01:38;;;;;;;2.63;2.03;;;;;;;29.64;70.05;100800.84;5007316;28;20188;-78
2022/06/28 06:04:03;;;;;;;2.07;1.87;;;;;;;28.24;74.31;100806.34;5005520;28;20208;-78
2022/06/28 06:06:29;;;;;;;2.10;1.87;;;;;;;29.29;73.37;100799.19;5025014;28;20262;-77
2022/06/28 06:08:54;;;;;;;2.53;1.77;;;;;;;29.96;71.46;100805.38;5001070;28;20208;-78
2022/06/28 06:11:20;;;;;;;2.80;1.93;;;;;;;29.94;71.15;100809.97;5011723;28;20740;-79
2022/06/28 06:13:45;;;;;;;3.43;2.13;;;;;;;29.66;71.50;100805.09;5009941;28;20258;-77
2022/06/28 06:16:10;;;;;;;3.13;1.90;;;;;;;29.19;72.24;100809.78;5006920;28;20188;-77
2022/06/28 06:18:36;;;;;;;2.20;1.73;;;;;;;29.52;72.32;100793.88;5002895;28;20185;-78
2022/06/28 06:21:01;;;;;;;4.83;2.00;;;;;;;29.72;71.82;100798.44;5009036;28;20282;-77
2022/06/28 06:23:27;;;;;;;2.30;2.00;;;;;;;29.04;73.14;100793.16;5010857;28;20195;-79
2022/06/28 06:25:52;;;;;;;4.37;2.03;;;;;;;28.20;74.85;100791.59;5005457;28;20271;-77
2022/06/28 06:28:18;;;;;;;3.23;1.80;;;;;;;27.57;77.19;100789.09;5017939;28;20265;-77
2022/06/28 06:30:43;;;;;;;3.63;1.80;;;;;;;27.19;77.26;100787.34;5006920;28;20184;-78
2022/06/28 06:33:08;;;;;;;3.23;2.10;;;;;;;27.33;76.88;100767.78;5011754;28;20189;-77
2022/06/28 06:35:34;;;;;;;2.63;1.80;;;;;;;27.32;76.93;100771.41;5005297;28;20205;-80
2022/06/28 06:38:02;;;;;;;4.00;2.40;;;;;;;26.56;78.24;100766.03;5021975;28;20208;-80
2022/06/28 06:40:29;;;;;;;3.27;2.20;;;;;;;26.85;78.21;100765.88;5003625;28;20290;-79
2022/06/28 06:42:55;;;;;;;3.10;1.80;;;;;;;25.98;80.45;100775.16;5025913;28;20196;-79
2022/06/28 06:45:20;;;;;;;4.70;1.97;;;;;;;25.91;79.75;100789.78;5009102;28;20890;-79
2022/06/28 06:47:46;;;;;;;2.67;1.60;;;;;;;26.14;78.51;100782.13;5009236;28;20278;-79
2022/06/28 06:50:11;;;;;;;2.67;1.60;;;;;;;26.41;78.00;100779.41;5030156;28;20191;-80
2022/06/28 06:52:37;;;;;;;1.77;1.60;;;;;;;26.88;77.85;100757.66;5005011;28;20911;-79
2022/06/28 06:55:06;;;;;;;4.47;1.97;;;;;;;25.97;78.72;100770.81;5017191;28;20215;-79
2022/06/28 06:57:32;;;;;;;3.70;1.73;;;;;;;26.38;78.78;100766.38;5026285;28;20265;-78
2022/06/28 06:59:57;;;;;;;4.73;1.70;;;;;;;26.18;77.82;100767.69;5026403;28;20844;-78
2022/06/28 07:02:23;;;;;;;2.90;1.20;;;;;;;26.24;78.39;100764.63;5009921;28;21093;-80
2022/06/28 07:04:48;;;;;;;2.87;1.70;;;;;;;25.98;78.33;100761.91;5013357;28;20889;-77
2022/06/28 07:07:13;;;;;;;2.93;1.70;;;;;;;26.63;77.02;100752.22;5005421;28;20188;-79
2022/06/28 07:09:39;;;;;;;2.63;1.80;;;;;;;26.98;75.59;100748.09;5028337;28;20211;-76
2022/06/28 07:12:05;;;;;;;2.70;1.63;;;;;;;27.33;75.79;100741.22;5007266;28;20203;-77
2022/06/28 07:14:30;;;;;;;3.30;1.60;;;;;;;27.11;75.30;100753.38;5000280;28;20236;-78
2022/06/28 07:16:56;;;;;;;1.70;1.40;;;;;;;27.95;74.74;100761.47;4998710;28;20215;-78
2022/06/28 07:19:21;;;;;;;1.43;1.10;;;;;;;27.76;74.43;100754.03;5004765;28;20648;-78
2022/06/28 07:21:46;;;;;;;2.73;1.57;;;;;;;27.62;74.36;100755.03;5001511;28;20196;-76
2022/06/28 07:24:13;;;;;;;2.57;1.70;;;;;;;27.29;75.35;100753.88;5002713;28;20764;-78
2022/06/28 07:26:38;;;;;;;2.10;1.70;;;;;;;27.32;75.31;100756.28;5004988;28;20196;-77
2022/06/28 07:29:04;;;;;;;2.70;1.60;;;;;;;26.14;76.44;100745.84;4988509;28;20219;-78
2022/06/28 07:31:30;;;;;;;1.73;1.50;;;;;;;25.87;77.65;100753.78;4999745;28;20185;-77
2022/06/28 07:33:57;;;;;;;5.37;1.77;;;;;;;25.38;79.18;100748.09;5004602;28;20204;-76
2022/06/28 07:36:23;;;;;;;1.83;1.33;;;;;;;25.93;78.95;100776.44;5015208;28;20235;-78
2022/06/28 07:38:48;;;;;;;6.23;1.80;;;;;;;25.94;77.34;100770.19;5021419;28;20189;-77
2022/06/28 07:41:14;;;;;;;2.33;1.60;;;;;;;25.40;78.73;100754.16;5005626;28;20192;-77
2022/06/28 07:43:40;;;;;;;2.40;1.47;;;;;;;25.53;77.50;100762.16;5001345;28;20327;-78
2022/06/28 07:46:05;;;;;;;2.77;1.57;;;;;;;26.35;76.78;100753.31;5004399;28;20263;-77
2022/06/28 07:48:31;;;;;;;3.70;1.40;;;;;;;26.74;75.46;100761.28;5002211;28;20196;-77
2022/06/28 07:53:40;;;;;;;2.20;1.40;;;;;;;27.72;73.59;100757.88;5018034;28;20211;-79
2022/06/28 07:56:06;;;;;;;3.03;1.50;;;;;;;27.89;72.12;100756.63;5011318;28;20191;-79
2022/06/28 07:58:32;;;;;;;1.73;1.20;;;;;;;28.02;71.68;100761.03;5008329;28;20169;-79
2022/06/28 08:00:59;;;;;;;4.50;1.47;;;;;;;27.95;71.76;100757.97;5014922;28;20190;-77
2022/06/28 08:03:24;;;;;;;1.40;1.30;;;;;;;27.66;71.79;100761.84;5006145;28;20192;-78
2022/06/28 08:05:49;;;;;;;3.27;1.27;;;;;;;27.68;71.89;100751.94;5024458;28;20191;-78
2022/06/28 08:08:15;;;;;;;1.47;1.30;;;;;;;27.75;71.66;100749.66;5018980;28;20269;-77
2022/06/28 08:10:41;;;;;;;2.00;1.40;;;;;;;27.56;71.98;100739.56;5009750;28;20588;-77
2022/06/28 08:13:07;;;;;;;4.97;1.40;;;;;;;27.50;73.14;100743.53;5027252;28;20192;-77
2022/06/28 08:15:32;;;;;;;2.50;1.63;;;;;;;27.40;73.49;100737.13;5006540;28;20569;-78
2022/06/28 08:17:57;;;;;;;1.37;1.20;;;;;;;27.13;72.66;100738.19;5018361;28;20226;-77
2022/06/28 08:20:23;;;;;;;2.20;1.40;;;;;;;26.75;74.01;100731.94;5005885;28;20757;-77
2022/06/28 08:22:48;;;;;;;1.93;1.37;;;;;;;26.77;74.65;100727.38;5016986;28;20201;-78
2022/06/28 08:25:14;;;;;;;3.43;1.63;;;;;;;26.09;74.82;100729.34;5022416;28;20303;-78
2022/06/28 08:27:40;;;;;;;3.43;1.40;;;;;;;25.64;75.75;100726.19;5016440;28;20243;-79
2022/06/28 08:30:06;;;;;;;3.50;1.67;;;;;;;25.01;76.37;100718.63;5012146;28;20293;-77
2022/06/28 08:32:32;;;;;;;2.97;1.37;;;;;;;24.90;76.37;100707.88;5006471;28;20624;-77
2022/06/28 08:34:57;;;;;;;2.77;1.60;;;;;;;24.87;76.05;100708.94;5025179;28;20207;-77
2022/06/28 08:37:23;;;;;;;3.77;1.23;;;;;;;24.66;75.52;100704.00;5003586;28;20184;-78
2022/06/28 08:39:48;;;;;;;1.80;1.37;;;;;;;24.22;77.23;100704.03;5027689;28;20198;-76
2022/06/28 08:42:22;;;;;;;2.77;1.20;;;;;;;23.90;76.33;100697.88;5010735;28;20620;-78
2022/06/28 08:44:49;;;;;;;2.30;1.43;;;;;;;24.13;77.23;100694.84;5023317;28;20215;-77
2022/06/28 08:47:15;;;;;;;2.37;1.20;;;;;;;24.26;77.18;100694.97;5007876;28;20195;-77
2022/06/28 08:49:59;;;;;;;1.67;1.50;;;;;;;24.05;76.27;100684.72;5004898;28;20239;-77
2022/06/28 08:52:25;;;;;;;2.20;1.33;;;;;;;24.17;77.36;100691.97;5006775;28;20197;-78
2022/06/28 08:54:51;;;;;;;2.67;1.30;;;;;;;23.93;77.55;100693.38;5016859;28;20288;-77
2022/06/28 08:57:19;;;;;;;2.70;1.30;;;;;;;23.70;76.53;100696.41;5006609;28;20278;-77
2022/06/28 08:59:46;;;;;;;3.23;1.30;;;;;;;23.73;76.75;100695.41;5004532;28;20191;-77
2022/06/28 09:02:13;;;;;;;1.83;1.37;;;;;;;23.57;74.80;100700.69;5004273;28;20239;-78
2022/06/28 09:04:40;;;;;;;2.10;1.20;;;;;;;23.53;76.49;100691.22;5027356;28;20214;-78
2022/06/28 09:07:06;;;;;;;3.07;1.30;;;;;;;23.42;75.89;100689.22;4998604;28;20664;-77
2022/06/28 09:09:31;;;;;;;2.17;1.27;;;;;;;23.44;76.14;100677.63;4996774;28;20215;-77
2022/06/28 09:11:57;;;;;;;2.03;1.10;;;;;;;23.44;74.56;100682.91;4999341;28;20200;-76
2022/06/28 09:14:29;;;;;;;2.10;1.30;;;;;;;23.28;74.37;100682.06;4999632;28;20200;-78
2022/06/28 09:16:56;;;;;;;1.10;1.00;;;;;;;23.17;74.32;100687.06;4997570;28;20778;-79
2022/06/28 09:19:40;;;;;;;1.57;1.20;;;;;;;23.26;74.52;100678.66;4997076;28;20200;-77
2022/06/28 09:22:06;;;;;;;1.37;1.27;;;;;;;23.37;75.45;100680.72;5004088;28;20722;-76
2022/06/28 09:24:32;;;;;;;3.70;1.43;;;;;;;23.25;74.60;100675.19;5016327;28;20212;-77
2022/06/28 09:27:05;;;;;;;2.33;1.37;;;;;;;23.21;74.88;100671.00;4995490;28;20219;-76
2022/06/28 09:30:01;;;;;;;1.83;1.30;;;;;;;22.99;73.86;100664.25;4996859;28;20418;-78
2022/06/28 09:32:32;;;;;;;2.90;1.30;;;;;;;23.14;74.04;100659.91;5003266;28;20196;-78
2022/06/28 09:35:00;;;;;;;2.37;1.20;;;;;;;23.03;73.75;100664.06;4999095;28;20963;-77
2022/06/28 09:40:25;;;;;;;0.97;0.90;;;;;;;23.13;74.13;100647.66;5010415;28;20209;-77
2022/06/28 09:43:14;;;;;;;2.50;1.40;;;;;;;23.27;72.49;100660.13;5017834;28;20185;-77
2022/06/28 09:45:42;;;;;;;2.70;1.10;;;;;;;23.42;72.72;100654.91;4998640;28;20743;-77
2022/06/28 09:48:08;;;;;;;1.80;1.20;;;;;;;23.52;71.84;100663.16;5018859;28;20258;-77
2022/06/28 09:50:35;;;;;;;1.20;0.83;;;;;;;23.57;70.45;100651.38;5004173;28;20188;-78
2022/06/28 09:53:01;;;;;;;2.17;1.10;;;;;;;23.54;70.40;100651.53;5006789;28;20543;-77
2022/06/28 09:55:30;;;;;;;2.80;1.50;;;;;;;23.68;71.87;100663.94;5013884;28;20358;-76
2022/06/28 09:57:57;;;;;;;1.37;0.90;;;;;;;23.63;71.14;100668.66;5007312;28;20207;-76
2022/06/28 10:00:24;;;;;;;2.37;1.00;;;;;;;23.62;71.10;100668.72;5002690;28;20914;-77
2022/06/28 10:02:54;;;;;;;1.90;1.00;;;;;;;23.66;70.10;100662.31;5004794;28;20183;-77
2022/06/28 10:05:20;;;;;;;1.97;0.90;;;;;;;23.67;69.40;100661.41;5003555;28;20230;-77
2022/06/28 10:07:46;;;;;;;3.03;1.13;;;;;;;23.69;69.84;100655.06;5004738;28;20669;-78
2022/06/28 10:10:13;;;;;;;2.50;0.87;;;;;;;23.71;68.86;100666.41;4995124;28;20677;-77
2022/06/28 10:15:25;;;;;;;2.37;1.10;;;;;;;23.95;69.90;100642.13;5001261;28;20281;-78
2022/06/28 10:18:02;;;;;;;2.93;0.90;;;;;;;23.75;68.71;100630.94;5001753;28;20190;-78
2022/06/28 10:20:28;;;;;;;2.40;1.20;;;;;;;23.75;69.32;100627.44;5018250;28;20418;-77
2022/06/28 10:23:25;;;;;;;2.50;1.00;;;;;;;23.65;69.62;100639.50;5004012;28;20220;-78
2022/06/28 10:26:11;;;;;;;1.63;1.00;;;;;;;23.62;69.50;100644.94;5006600;28;20189;-78
2022/06/28 10:28:41;;;;;;;2.17;1.00;;;;;;;23.78;69.16;100645.75;5001897;28;20196;-78
2022/06/28 10:31:22;;;;;;;2.00;1.23;;;;;;;24.04;70.37;100617.81;5019093;28;20189;-77
2022/06/28 10:33:56;;;;;;;2.57;1.00;;;;;;;24.14;68.01;100607.53;5002693;28;20216;-77
2022/06/28 10:36:24;;;;;;;1.70;1.10;;;;;;;24.18;68.53;100611.69;5004695;28;20750;-77
2022/06/28 10:39:01;;;;;;;1.40;0.93;;;;;;;24.07;68.22;100610.63;5003640;28;20222;-78
2022/06/28 10:41:45;;;;;;;2.10;1.23;;;;;;;24.16;69.14;100607.41;4991538;28;20184;-78
2022/06/28 10:44:20;;;;;;;1.30;1.17;;;;;;;24.10;68.07;100607.81;5000248;28;20314;-78
2022/06/28 10:47:13;;;;;;;2.57;1.10;;;;;;;24.30;68.99;100603.94;5025094;28;20184;-78
2022/06/28 10:49:50;;;;;;;1.50;1.03;;;;;;;24.17;68.76;100586.19;5009010;28;20227;-78
2022/06/28 10:52:18;;;;;;;1.70;1.20;;;;;;;24.21;68.98;100592.13;5021697;28;20209;-78
2022/06/28 10:55:04;;;;;;;1.40;1.03;;;;;;;24.31;68.34;100577.38;5007950;28;20231;-78
2022/06/28 10:57:32;;;;;;;1.93;1.00;;;;;;;24.38;68.23;100577.00;5005514;28;20237;-78
2022/06/28 11:00:01;;;;;;;1.67;1.20;;;;;;;24.43;68.85;100564.38;5019794;28;20176;-78
2022/06/28 11:02:49;;;;;;;3.90;1.23;;;;;;;24.74;70.18;100557.13;5009764;28;20561;-77
2022/06/28 11:05:16;;;;;;;1.43;1.00;;;;;;;24.46;68.87;100556.22;5020062;28;20220;-76
2022/06/28 11:07:55;;;;;;;4.53;1.13;;;;;;;24.43;68.01;100543.19;5009106;28;20184;-78
2022/06/28 11:10:21;;;;;;;2.20;1.00;;;;;;;24.20;68.39;100542.84;5001509;28;20205;-76
2022/06/28 11:12:46;;;;;;;2.83;0.93;;;;;;;24.37;68.72;100533.84;5004529;28;20183;-77
2022/06/28 11:15:35;;;;;;;2.20;1.10;;;;;;;24.29;68.10;100528.19;4999178;28;20254;-77
2022/06/28 11:18:01;;;;;;;1.20;1.00;;;;;;;24.19;67.65;100533.19;5007645;28;20272;-78
2022/06/28 11:20:30;;;;;;;1.53;1.00;;;;;;;24.29;68.38;100523.72;5006186;28;20188;-78
2022/06/28 11:22:56;;;;;;;1.37;1.10;;;;;;;24.32;67.98;100512.13;5037343;28;20223;-77
2022/06/28 11:25:23;;;;;;;1.67;0.90;;;;;;;24.37;69.84;100515.31;5008782;28;20735;-77
2022/06/28 11:27:55;;;;;;;3.00;1.07;;;;;;;24.42;70.33;100507.13;5006534;28;20196;-75
2022/06/28 11:30:27;;;;;;;2.10;0.90;;;;;;;24.60;70.28;100518.31;5021371;28;20275;-77
2022/06/28 11:32:55;;;;;;;1.90;1.07;;;;;;;24.75;68.15;100511.19;5016072;28;20193;-75
2022/06/28 11:35:27;;;;;;;1.13;0.90;;;;;;;24.94;68.05;100510.84;5025809;28;20239;-77
2022/06/28 11:38:05;;;;;;;1.50;1.10;;;;;;;25.09;68.53;100499.25;5021942;28;20200;-77
2022/06/28 11:40:49;;;;;;;3.50;1.37;;;;;;;24.83;68.22;100500.97;5001670;28;20180;-77